createdAt,value
2023-09-26T06:29:17.905Z,101266.84
2023-09-26T06:32:20.389Z,101271.91
2023-09-26T06:35:22.799Z,101265.31
2023-09-26T06:38:25.201Z,101270.34
2023-09-26T06:41:27.621Z,101270.63
2023-09-26T06:44:30.547Z,101271.59
2023-09-26T06:47:34.146Z,101274.38
2023-09-26T06:50:43.347Z,101277.25
2023-09-26T06:53:45.725Z,101269.97
2023-09-26T06:56:48.237Z,101270.78
2023-09-26T06:59:51.312Z,101264.84
2023-09-26T07:02:53.928Z,101270.44
2023-09-26T07:05:57.948Z,101272.91
2023-09-26T07:09:01.883Z,101268.00
2023-09-26T07:12:04.799Z,101279.22
2023-09-26T07:15:11.322Z,101262.28
2023-09-26T07:18:14.311Z,101280.69
2023-09-26T07:21:18.601Z,101281.88
2023-09-26T07:24:22.853Z,101275.03
2023-09-26T07:27:26.670Z,101273.50
2023-09-26T07:30:29.313Z,101282.78
2023-09-26T07:33:32.943Z,101289.84
2023-09-26T07:36:35.691Z,101278.28
2023-09-26T07:39:38.326Z,101277.22
2023-09-26T07:42:42.374Z,101284.34
2023-09-26T07:45:45.959Z,101291.06
2023-09-26T07:48:48.902Z,101291.94
2023-09-26T07:51:51.598Z,101294.28
2023-09-26T07:54:54.972Z,101292.81
2023-09-26T07:57:57.369Z,101294.41
2023-09-26T08:01:00.275Z,101300.44
2023-09-26T08:04:03.986Z,101298.03
2023-09-26T08:07:06.403Z,101298.59
2023-09-26T08:10:09.941Z,101296.47
2023-09-26T08:13:12.379Z,101300.88
2023-09-26T08:16:14.772Z,101289.28
2023-09-26T08:19:17.564Z,101286.34
2023-09-26T08:22:19.932Z,101292.88
2023-09-26T08:25:22.497Z,101291.44
2023-09-26T08:28:26.868Z,101287.13
2023-09-26T08:31:29.602Z,101285.78
2023-09-26T08:34:32.022Z,101290.63
2023-09-26T08:37:35.188Z,101289.19
2023-09-26T08:40:38.360Z,101284.00
2023-09-26T08:43:41.764Z,101288.06
2023-09-26T08:46:46.692Z,101283.72
2023-09-26T08:49:51.647Z,101282.06
2023-09-26T08:52:54.811Z,101282.03
2023-09-26T08:55:57.425Z,101281.78
2023-09-26T08:59:02.757Z,101274.09
2023-09-26T09:02:05.608Z,101277.91
2023-09-26T09:05:09.024Z,101269.41
2023-09-26T09:08:22.483Z,101269.97
2023-09-26T09:11:34.465Z,101279.16
2023-09-26T09:14:37.370Z,101266.34
2023-09-26T09:17:43.508Z,101276.16
2023-09-26T09:20:46.005Z,101266.50
2023-09-26T09:23:49.149Z,101263.53
2023-09-26T09:26:52.693Z,101263.75
2023-09-26T09:30:13.785Z,101263.16
2023-09-26T09:33:16.851Z,101264.84
2023-09-26T09:36:21.939Z,101266.25
2023-09-26T09:39:24.509Z,101253.13
2023-09-26T09:42:27.441Z,101252.25
2023-09-26T09:45:35.040Z,101247.44
2023-09-26T09:48:46.159Z,101250.72
2023-09-26T09:51:48.870Z,101235.31
2023-09-26T09:54:54.087Z,101244.13
2023-09-26T09:57:58.323Z,101227.38
2023-09-26T10:01:01.578Z,101223.75
2023-09-26T10:04:05.030Z,101224.00
2023-09-26T10:07:08.446Z,101218.47
2023-09-26T10:10:12.892Z,101213.53
2023-09-26T10:13:34.496Z,101209.63
2023-09-26T10:16:38.530Z,101211.69
2023-09-26T10:19:58.001Z,101204.84
2023-09-26T10:23:13.961Z,101200.09
2023-09-26T10:26:18.879Z,101198.97
2023-09-26T10:29:21.157Z,101192.75
2023-09-26T10:32:35.020Z,101196.31
2023-09-26T10:35:44.548Z,101185.06
2023-09-26T10:39:02.543Z,101186.09
2023-09-26T10:42:35.902Z,101178.38
2023-09-26T10:45:37.520Z,101177.34
2023-09-26T10:48:41.566Z,101166.75
2023-09-26T10:51:43.974Z,101165.94
2023-09-26T10:54:46.486Z,101166.59
2023-09-26T10:57:51.922Z,101161.75
2023-09-26T11:00:54.753Z,101164.72
2023-09-26T11:03:57.735Z,101162.00
2023-09-26T11:07:04.321Z,101163.50
2023-09-26T11:10:11.947Z,101156.06
2023-09-26T11:13:14.615Z,101154.53
2023-09-26T11:16:19.421Z,101158.63
2023-09-26T11:19:27.504Z,101147.88
2023-09-26T11:22:29.906Z,101140.19
2023-09-26T11:25:33.281Z,101143.44
2023-09-26T11:28:36.117Z,101137.81
2023-09-26T11:31:39.739Z,101131.41
2023-09-26T11:34:43.175Z,101131.16
2023-09-26T11:37:50.282Z,101128.59
2023-09-26T11:40:55.423Z,101123.44
2023-09-26T11:44:08.130Z,101118.03
2023-09-26T11:47:10.989Z,101123.22
2023-09-26T11:50:13.611Z,101118.63
2023-09-26T11:53:16.560Z,101120.91
2023-09-26T11:56:20.012Z,101111.31
2023-09-26T11:59:22.395Z,101104.31
2023-09-26T12:02:25.013Z,101109.84
2023-09-26T12:05:27.560Z,101096.31
2023-09-26T12:08:30.535Z,101109.28
2023-09-26T12:11:32.934Z,101096.38
2023-09-26T12:14:35.391Z,101095.19
2023-09-26T12:17:38.523Z,101092.72
2023-09-26T12:20:41.065Z,101086.34
2023-09-26T12:23:43.475Z,101084.88
2023-09-26T12:26:49.310Z,101086.84
2023-09-26T12:29:52.307Z,101077.44
2023-09-26T12:32:54.877Z,101084.28
2023-09-26T12:35:59.422Z,101071.94
2023-09-26T12:39:02.774Z,101074.31
2023-09-26T12:42:05.446Z,101079.91
2023-09-26T12:45:08.755Z,101069.69
2023-09-26T12:48:11.072Z,101071.56
2023-09-26T12:51:13.789Z,101067.50
2023-09-26T12:54:16.164Z,101063.16
2023-09-26T12:57:18.493Z,101062.47
2023-09-26T13:00:21.067Z,101059.09
2023-09-26T13:03:23.743Z,101057.28
2023-09-26T13:06:26.922Z,101056.50
2023-09-26T13:09:29.260Z,101055.34
2023-09-26T13:12:31.706Z,101055.66
2023-09-26T13:15:34.046Z,101057.94
2023-09-26T13:18:36.581Z,101044.78
2023-09-26T13:21:38.870Z,101042.44
2023-09-26T13:24:42.904Z,101046.81
2023-09-26T13:27:45.382Z,101043.66
2023-09-26T13:30:48.785Z,101048.59
2023-09-26T13:33:51.434Z,101042.81
2023-09-26T13:36:53.922Z,101041.56
2023-09-26T13:39:56.328Z,101037.97
2023-09-26T13:42:58.891Z,101041.56
2023-09-26T13:46:01.241Z,101038.91
2023-09-26T13:49:03.644Z,101045.50
2023-09-26T13:52:06.115Z,101049.28
2023-09-26T13:55:09.089Z,101041.56
2023-09-26T13:58:11.557Z,101039.25
2023-09-26T14:01:13.909Z,101043.47
2023-09-26T14:04:16.329Z,101042.69
2023-09-26T14:07:18.925Z,101031.06
2023-09-26T14:10:22.708Z,101038.00
2023-09-26T14:13:26.339Z,101042.19
2023-09-26T14:16:30.983Z,101034.06
2023-09-26T14:19:34.319Z,101029.75
2023-09-26T14:22:40.665Z,101030.94
2023-09-26T14:25:59.768Z,101029.72
2023-09-26T14:29:03.031Z,101030.44
2023-09-26T14:32:07.771Z,101028.25
2023-09-26T14:35:11.333Z,101030.16
2023-09-26T14:38:14.144Z,101023.16
2023-09-26T14:41:16.673Z,101018.50
2023-09-26T14:44:19.688Z,101024.63
2023-09-26T14:47:24.206Z,101017.91
2023-09-26T14:50:26.911Z,101026.00
2023-09-26T14:53:29.500Z,101020.19
2023-09-26T14:56:32.703Z,101016.66
2023-09-26T14:59:35.116Z,101017.47
2023-09-26T15:02:39.530Z,101007.03
2023-09-26T15:05:43.890Z,101017.72
2023-09-26T15:08:46.804Z,101009.56
2023-09-26T15:11:49.176Z,101004.06
2023-09-26T15:14:51.884Z,101000.09
2023-09-26T15:17:54.254Z,101009.31
2023-09-26T15:20:56.630Z,101006.94
2023-09-26T15:23:58.976Z,101006.13
2023-09-26T15:27:01.254Z,101008.34
2023-09-26T15:30:03.828Z,101008.91
2023-09-26T15:33:06.648Z,100999.88
2023-09-26T15:36:13.930Z,101003.69
2023-09-26T15:39:17.700Z,101002.81
2023-09-26T15:42:20.304Z,101010.59
2023-09-26T15:45:22.849Z,101011.84
2023-09-26T15:48:25.194Z,101007.47
2023-09-26T15:51:27.611Z,101003.09
2023-09-26T15:54:29.977Z,101007.84
2023-09-26T15:57:32.287Z,101002.94
2023-09-26T16:00:34.903Z,100994.91
2023-09-26T16:03:37.494Z,101008.06
2023-09-26T16:06:39.952Z,101004.03
2023-09-26T16:09:42.638Z,101002.34
2023-09-26T16:13:06.448Z,101006.81
2023-09-26T16:16:09.346Z,101010.97
2023-09-26T16:19:11.831Z,101010.94
2023-09-26T16:22:14.114Z,101006.72
2023-09-26T16:25:16.580Z,101007.19
2023-09-26T16:28:18.946Z,101014.94
2023-09-26T16:31:21.848Z,101011.66
2023-09-26T16:34:24.299Z,101019.38
2023-09-26T16:37:26.825Z,101012.91
2023-09-26T16:40:29.328Z,101018.47
2023-09-26T16:43:31.881Z,101008.13
2023-09-26T16:46:34.576Z,101018.59
2023-09-26T16:49:37.629Z,101014.31
2023-09-26T16:52:40.119Z,101014.22
2023-09-26T16:55:42.491Z,101023.97
2023-09-26T16:58:44.879Z,101023.28
2023-09-26T17:01:47.423Z,101014.56
2023-09-26T17:04:49.864Z,101030.97
2023-09-26T17:07:52.264Z,101029.34
2023-09-26T17:10:54.685Z,101035.25
2023-09-26T17:13:57.079Z,101037.47
2023-09-26T17:17:02.219Z,101041.53
2023-09-26T17:20:07.417Z,101038.66
2023-09-26T17:23:10.996Z,101048.34
2023-09-26T17:26:13.677Z,101051.72
2023-09-26T17:29:16.086Z,101051.41
2023-09-26T17:32:18.892Z,101051.81
2023-09-26T17:35:21.415Z,101054.94
2023-09-26T17:38:23.995Z,101052.09
2023-09-26T17:41:26.648Z,101055.94
2023-09-26T17:44:29.061Z,101058.78
2023-09-26T17:47:31.491Z,101059.25
2023-09-26T17:50:33.822Z,101059.06
2023-09-26T17:53:37.225Z,101065.41
2023-09-26T17:56:39.623Z,101059.97
2023-09-26T17:59:41.886Z,101052.13
2023-09-26T18:02:44.393Z,101065.09
2023-09-26T18:05:46.847Z,101064.47
2023-09-26T18:08:49.485Z,101061.97
2023-09-26T18:11:51.859Z,101064.53
2023-09-26T18:14:54.270Z,101063.63
2023-09-26T18:17:58.628Z,101061.13
2023-09-26T18:21:02.435Z,101073.06
2023-09-26T18:24:05.401Z,101070.22
2023-09-26T18:27:08.645Z,101071.78
2023-09-26T18:30:12.530Z,101075.38
2023-09-26T18:33:14.976Z,101082.75
2023-09-26T18:36:17.376Z,101075.09
2023-09-26T18:39:19.950Z,101073.84
2023-09-26T18:42:22.956Z,101070.56
2023-09-26T18:45:25.715Z,101078.75
2023-09-26T18:48:28.028Z,101077.34
2023-09-26T18:51:30.316Z,101088.19
2023-09-26T18:54:32.689Z,101088.63
2023-09-26T18:57:35.124Z,101096.03
2023-09-26T19:00:38.827Z,101094.63
2023-09-26T19:03:41.302Z,101104.19
2023-09-26T19:06:43.776Z,101101.34
2023-09-26T19:09:46.118Z,101108.84
2023-09-26T19:12:48.584Z,101103.66
2023-09-26T19:15:50.969Z,101107.91
2023-09-26T19:19:04.044Z,101100.38
2023-09-26T19:22:07.992Z,101108.19
2023-09-26T19:25:11.137Z,101100.84
2023-09-26T19:28:16.521Z,101117.31
2023-09-26T19:31:19.100Z,101107.91
2023-09-26T19:34:21.630Z,101111.47
2023-09-26T19:37:24.027Z,101117.75
2023-09-26T19:40:26.316Z,101116.94
2023-09-26T19:43:31.534Z,101117.69
2023-09-26T19:46:34.009Z,101121.41
2023-09-26T19:49:39.708Z,101107.13
2023-09-26T19:52:42.213Z,101110.94
2023-09-26T19:55:49.489Z,101118.00
2023-09-26T19:58:52.276Z,101113.16
2023-09-26T20:01:55.468Z,101119.06
2023-09-26T20:04:57.873Z,101118.72
2023-09-26T20:08:01.676Z,101116.81
2023-09-26T20:11:04.045Z,101119.00
2023-09-26T20:14:07.183Z,101119.94
2023-09-26T20:17:09.625Z,101119.59
2023-09-26T20:20:12.109Z,101115.28
2023-09-26T20:23:14.588Z,101121.19
2023-09-26T20:26:16.998Z,101119.28
2023-09-26T20:29:19.550Z,101119.28
2023-09-26T20:32:21.964Z,101125.38
2023-09-26T20:35:24.478Z,101127.38
2023-09-26T20:38:27.409Z,101126.09
2023-09-26T20:41:29.921Z,101124.66
2023-09-26T20:44:32.359Z,101119.31
2023-09-26T20:47:34.749Z,101123.97
2023-09-26T20:50:37.145Z,101116.81
2023-09-26T20:53:39.679Z,101131.84
2023-09-26T20:56:42.134Z,101129.19
2023-09-26T20:59:44.557Z,101125.72
2023-09-26T21:02:46.966Z,101127.31
2023-09-26T21:05:49.847Z,101131.38
2023-09-26T21:08:52.560Z,101129.88
2023-09-26T21:11:55.087Z,101134.72
2023-09-26T21:14:57.396Z,101140.47
2023-09-26T21:17:59.783Z,101140.41
2023-09-26T21:21:02.252Z,101135.34
2023-09-26T21:24:06.571Z,101136.00
2023-09-26T21:27:08.913Z,101134.84
2023-09-26T21:30:12.290Z,101139.75
2023-09-26T21:33:14.866Z,101140.13
2023-09-26T21:36:18.295Z,101147.53
2023-09-26T21:39:20.740Z,101149.88
2023-09-26T21:42:23.208Z,101152.47
2023-09-26T21:45:25.567Z,101143.38
2023-09-26T21:48:28.155Z,101143.09
2023-09-26T21:51:30.917Z,101140.44
2023-09-26T21:54:33.244Z,101142.44
2023-09-26T21:57:35.644Z,101143.50
2023-09-26T22:00:37.936Z,101143.78
2023-09-26T22:03:40.849Z,101145.66
2023-09-26T22:06:44.281Z,101142.03
2023-09-26T22:09:46.537Z,101152.56
2023-09-26T22:12:48.936Z,101146.56
2023-09-26T22:15:51.788Z,101139.34
2023-09-26T22:18:54.118Z,101147.44
2023-09-26T22:21:57.708Z,101137.50
2023-09-26T22:25:00.331Z,101137.78
2023-09-26T22:28:03.271Z,101143.09
2023-09-26T22:31:05.561Z,101137.38
2023-09-26T22:34:08.338Z,101146.38
2023-09-26T22:37:10.640Z,101141.81
2023-09-26T22:40:12.997Z,101132.47
2023-09-26T22:43:15.294Z,101143.78
2023-09-26T22:46:17.621Z,101151.47
2023-09-26T22:49:20.310Z,101152.06
2023-09-26T22:52:23.579Z,101149.31
2023-09-26T22:55:25.945Z,101145.16
2023-09-26T22:58:28.375Z,101148.69
2023-09-26T23:01:30.794Z,101154.09
2023-09-26T23:04:33.096Z,101149.56
2023-09-26T23:07:36.833Z,101141.09
2023-09-26T23:10:39.258Z,101154.88
2023-09-26T23:13:41.696Z,101153.31
2023-09-26T23:16:44.973Z,101152.41
2023-09-26T23:19:47.403Z,101146.00
2023-09-26T23:22:49.893Z,101146.19
2023-09-26T23:25:52.227Z,101154.38
2023-09-26T23:28:54.769Z,101148.19
2023-09-26T23:31:57.484Z,101153.34
2023-09-26T23:35:00.010Z,101152.13
2023-09-26T23:38:04.061Z,101152.81
2023-09-26T23:41:07.402Z,101145.53
2023-09-26T23:44:15.780Z,101147.84
2023-09-26T23:47:18.242Z,101149.88
2023-09-26T23:50:20.879Z,101144.56
2023-09-26T23:53:23.348Z,101144.09
2023-09-26T23:56:25.842Z,101141.91
2023-09-26T23:59:28.397Z,101151.31
